Time,TemperatureF,DewpointF,PressureIn,WindDirection,WindDirectionDegrees,WindSpeedMPH,WindSpeedGustMPH,Humidity,HourlyPrecipIn,Conditions,Clouds,dailyrainin,SoftwareType,DateUTC
2013-01-23 00:04:00,7.2,1.2,29.72,NE,46,12.0,12.0,76,0.00,,---,0.00,VWS V14.01,2013-01-23 09:04:00,
2013-01-23 00:09:00,7.3,1.6,29.72,NE,38,9.0,9.0,77,0.00,,---,0.00,VWS V14.01,2013-01-23 09:09:00,
2013-01-23 00:14:00,7.4,1.7,29.72,NE,38,6.0,11.0,77,0.00,,---,0.00,VWS V14.01,2013-01-23 09:14:00,
2013-01-23 00:19:00,7.6,1.6,29.72,ENE,59,1.0,3.0,76,0.00,,---,0.00,VWS V14.01,2013-01-23 09:19:00,
2013-01-23 00:24:00,7.5,1.5,29.71,NNE,16,2.0,6.0,76,0.00,,---,0.00,VWS V14.01,2013-01-23 09:24:00,
2013-01-23 00:29:00,7.4,1.4,29.72,ENE,63,3.0,4.0,76,0.00,,---,0.00,VWS V14.01,2013-01-23 09:29:00,
2013-01-23 00:34:00,7.3,1.3,29.71,ENE,61,7.0,9.0,76,0.00,,---,0.00,VWS V14.01,2013-01-23 09:34:00,
2013-01-23 00:39:00,7.2,1.2,29.71,NE,54,5.0,9.0,76,0.00,,---,0.00,VWS V14.01,2013-01-23 09:39:00,
2013-01-23 00:44:00,7.1,1.1,29.72,NE,39,3.0,7.0,76,0.00,,---,0.00,VWS V14.01,2013-01-23 09:44:00,
2013-01-23 00:49:00,7.0,1.0,29.71,NE,53,5.0,5.0,76,0.00,,---,0.00,VWS V14.01,2013-01-23 09:49:00,
2013-01-23 00:54:00,6.9,1.2,29.71,NE,35,4.0,10.0,77,0.00,,---,0.00,VWS V14.01,2013-01-23 09:54:00,
2013-01-23 00:59:00,6.8,1.1,29.71,NE,53,3.0,4.0,77,0.00,,---,0.00,VWS V14.01,2013-01-23 09:59:00,
2013-01-23 01:04:00,6.7,1.0,29.72,NNE,18,4.0,4.0,77,0.00,,---,0.00,VWS V14.01,2013-01-23 10:04:00,
2013-01-23 01:09:00,6.6,0.9,29.71,NE,44,5.0,6.0,77,0.00,,---,0.00,VWS V14.01,2013-01-23 10:09:00,
2013-01-23 01:14:00,6.4,0.7,29.71,NNE,27,3.0,6.0,77,0.00,,---,0.00,VWS V14.01,2013-01-23 10:14:00,
2013-01-23 01:19:00,6.2,0.6,29.71,NNE,20,5.0,5.0,77,0.00,,---,0.00,VWS V14.01,2013-01-23 10:19:00,
2013-01-23 01:24:00,5.9,0.3,29.71,NNE,26,3.0,6.0,77,0.00,,---,0.00,VWS V14.01,2013-01-23 10:24:00,
2013-01-23 01:29:00,5.6,0.2,29.71,NE,49,5.0,6.0,78,0.00,,---,0.00,VWS V14.01,2013-01-23 10:29:00,
2013-01-23 01:34:00,5.4,0.0,29.71,NE,50,7.0,9.0,78,0.00,,---,0.00,VWS V14.01,2013-01-23 10:34:00,
2013-01-23 01:39:00,5.3,-0.1,29.71,NNE,27,9.0,10.0,78,0.00,,---,0.00,VWS V14.01,2013-01-23 10:39:00,
2013-01-23 01:44:00,5.1,-0.2,29.71,NNE,13,3.0,5.0,78,0.00,,---,0.00,VWS V14.01,2013-01-23 10:44:00,
2013-01-23 01:49:00,5.1,-0.2,29.71,NNE,17,6.0,7.0,78,0.00,,---,0.00,VWS V14.01,2013-01-23 10:49:00,
2013-01-23 01:54:00,5.1,0.0,29.71,NNE,15,4.0,6.0,79,0.00,,---,0.00,VWS V14.01,2013-01-23 10:54:00,
2013-01-23 01:59:00,5.2,0.1,29.70,NE,52,9.0,9.0,79,0.00,,---,0.00,VWS V14.01,2013-01-23 10:59:00,
2013-01-23 02:04:00,5.3,-0.1,29.70,ENE,67,5.0,9.0,78,0.00,,---,0.00,VWS V14.01,2013-01-23 11:04:00,
2013-01-23 02:09:00,5.5,0.4,29.70,NE,36,5.0,13.0,79,0.00,,---,0.00,VWS V14.01,2013-01-23 11:09:00,
2013-01-23 02:14:00,5.8,0.4,29.70,NNE,21,7.0,9.0,78,0.00,,---,0.00,VWS V14.01,2013-01-23 11:14:00,
2013-01-23 02:19:00,5.9,0.5,29.70,NNE,27,6.0,9.0,78,0.00,,---,0.00,VWS V14.01,2013-01-23 11:19:00,
2013-01-23 02:24:00,6.1,0.4,29.69,NE,44,5.0,9.0,77,0.00,,---,0.00,VWS V14.01,2013-01-23 11:24:00,
2013-01-23 02:29:00,6.2,0.6,29.69,NE,38,10.0,12.0,77,0.00,,---,0.00,VWS V14.01,2013-01-23 11:29:00,
2013-01-23 02:35:00,6.3,0.6,29.69,NNE,24,5.0,6.0,77,0.00,,---,0.00,VWS V14.01,2013-01-23 11:35:00,
2013-01-23 02:40:00,6.4,0.7,29.69,NE,38,12.0,12.0,77,0.00,,---,0.00,VWS V14.01,2013-01-23 11:40:00,
2013-01-23 02:45:00,6.4,0.5,29.69,NNE,29,6.0,10.0,76,0.00,,---,0.00,VWS V14.01,2013-01-23 11:45:00,
2013-01-23 02:50:00,6.4,0.5,29.69,NE,56,9.0,9.0,76,0.00,,---,0.00,VWS V14.01,2013-01-23 11:50:00,
2013-01-23 02:55:00,6.5,0.6,29.69,ENE,61,2.0,5.0,76,0.00,,---,0.00,VWS V14.01,2013-01-23 11:55:00,
2013-01-23 03:00:00,6.4,0.5,29.69,NE,50,2.0,6.0,76,0.00,,---,0.00,VWS V14.01,2013-01-23 12:00:00,
2013-01-23 03:05:00,6.4,0.5,29.69,NE,46,5.0,10.0,76,0.00,,---,0.00,VWS V14.01,2013-01-23 12:05:00,
2013-01-23 03:10:00,6.4,0.5,29.68,NE,48,6.0,12.0,76,0.00,,---,0.00,VWS V14.01,2013-01-23 12:10:00,
2013-01-23 03:15:00,6.5,0.6,29.68,NE,36,8.0,10.0,76,0.00,,---,0.00,VWS V14.01,2013-01-23 12:15:00,
2013-01-23 03:20:00,6.4,0.5,29.68,NE,42,12.0,12.0,76,0.00,,---,0.00,VWS V14.01,2013-01-23 12:20:00,
2013-01-23 03:25:00,6.5,0.6,29.68,NE,44,11.0,11.0,76,0.00,,---,0.00,VWS V14.01,2013-01-23 12:25:00,
2013-01-23 03:30:00,6.7,0.8,29.68,ENE,59,7.0,13.0,76,0.00,,---,0.00,VWS V14.01,2013-01-23 12:30:00,
2013-01-23 03:35:00,6.8,0.6,29.68,ENE,75,7.0,8.0,75,0.00,,---,0.00,VWS V14.01,2013-01-23 12:35:00,
2013-01-23 03:40:00,6.8,0.6,29.68,ENE,66,5.0,10.0,75,0.00,,---,0.00,VWS V14.01,2013-01-23 12:40:00,
2013-01-23 03:45:00,6.8,0.6,29.68,NE,44,10.0,10.0,75,0.00,,---,0.00,VWS V14.01,2013-01-23 12:45:00,
2013-01-23 03:50:00,6.7,0.5,29.68,NE,35,6.0,6.0,75,0.00,,---,0.00,VWS V14.01,2013-01-23 12:50:00,
2013-01-23 03:55:00,6.7,0.5,29.67,ENE,72,6.0,7.0,75,0.00,,---,0.00,VWS V14.01,2013-01-23 12:55:00,
2013-01-23 04:00:00,6.8,0.6,29.67,NE,53,13.0,13.0,75,0.00,,---,0.00,VWS V14.01,2013-01-23 13:00:00,
2013-01-23 04:05:00,7.0,0.8,29.67,NE,53,4.0,7.0,75,0.00,,---,0.00,VWS V14.01,2013-01-23 13:05:00,
2013-01-23 04:10:00,7.2,1.0,29.67,NE,44,10.0,11.0,75,0.00,,---,0.00,VWS V14.01,2013-01-23 13:10:00,
2013-01-23 04:15:00,7.3,1.0,29.67,NNE,24,3.0,13.0,75,0.00,,---,0.00,VWS V14.01,2013-01-23 13:15:00,
2013-01-23 04:20:00,7.5,1.2,29.67,NE,48,7.0,15.0,75,0.00,,---,0.00,VWS V14.01,2013-01-23 13:20:00,
2013-01-23 04:25:00,7.7,1.4,29.67,ENE,63,8.0,9.0,75,0.00,,---,0.00,VWS V14.01,2013-01-23 13:25:00,
2013-01-23 04:30:00,7.9,1.6,29.67,NE,53,3.0,6.0,75,0.00,,---,0.00,VWS V14.01,2013-01-23 13:30:00,
2013-01-23 04:35:00,8.1,1.8,29.67,NE,42,7.0,7.0,75,0.00,,---,0.00,VWS V14.01,2013-01-23 13:35:00,
2013-01-23 04:40:00,8.2,1.9,29.66,ENE,70,3.0,6.0,75,0.00,,---,0.00,VWS V14.01,2013-01-23 13:40:00,
2013-01-23 04:45:00,8.3,2.0,29.67,NE,56,2.0,9.0,75,0.00,,---,0.00,VWS V14.01,2013-01-23 13:45:00,
2013-01-23 04:50:00,8.5,2.2,29.66,NE,39,13.0,13.0,75,0.00,,---,0.00,VWS V14.01,2013-01-23 13:50:00,
2013-01-23 04:55:00,8.6,2.3,29.66,NNE,28,6.0,13.0,75,0.00,,---,0.00,VWS V14.01,2013-01-23 13:55:00,
2013-01-23 05:00:00,8.8,2.2,29.66,NE,43,4.0,6.0,74,0.00,,---,0.00,VWS V14.01,2013-01-23 14:00:00,
2013-01-23 05:05:00,8.9,2.3,29.66,NE,44,8.0,10.0,74,0.00,,---,0.00,VWS V14.01,2013-01-23 14:05:00,
2013-01-23 05:10:00,9.0,2.4,29.66,NE,44,5.0,8.0,74,0.00,,---,0.00,VWS V14.01,2013-01-23 14:10:00,
2013-01-23 05:15:00,9.0,2.4,29.66,NE,50,9.0,13.0,74,0.00,,---,0.00,VWS V14.01,2013-01-23 14:15:00,
2013-01-23 05:20:00,9.0,2.4,29.66,NE,42,7.0,7.0,74,0.00,,---,0.00,VWS V14.01,2013-01-23 14:20:00,
2013-01-23 05:25:00,9.0,2.4,29.66,NE,37,10.0,11.0,74,0.00,,---,0.00,VWS V14.01,2013-01-23 14:25:00,
2013-01-23 05:30:00,8.9,2.3,29.65,NE,44,4.0,12.0,74,0.00,,---,0.00,VWS V14.01,2013-01-23 14:30:00,
2013-01-23 05:35:00,8.9,2.3,29.65,NNE,17,5.0,10.0,74,0.00,,---,0.00,VWS V14.01,2013-01-23 14:35:00,
2013-01-23 05:40:00,8.9,2.3,29.65,NNE,26,6.0,14.0,74,0.00,,---,0.00,VWS V14.01,2013-01-23 14:40:00,
2013-01-23 05:45:00,8.8,2.2,29.65,NNE,33,5.0,14.0,74,0.00,,---,0.00,VWS V14.01,2013-01-23 14:45:00,
2013-01-23 05:50:00,8.7,2.1,29.65,NNE,28,3.0,13.0,74,0.00,,---,0.00,VWS V14.01,2013-01-23 14:50:00,
2013-01-23 05:55:00,8.6,2.0,29.65,ENE,63,3.0,8.0,74,0.00,,---,0.00,VWS V14.01,2013-01-23 14:55:00,
2013-01-23 06:00:00,8.6,1.7,29.65,NE,48,5.0,10.0,73,0.00,,---,0.00,VWS V14.01,2013-01-23 15:00:00,
2013-01-23 06:05:00,8.5,1.6,29.65,NE,42,4.0,9.0,73,0.00,,---,0.00,VWS V14.01,2013-01-23 15:05:00,
2013-01-23 06:10:00,8.4,1.5,29.64,ENE,61,5.0,15.0,73,0.00,,---,0.00,VWS V14.01,2013-01-23 15:10:00,
2013-01-23 06:15:00,8.2,1.6,29.64,NE,45,5.0,16.0,74,0.00,,---,0.00,VWS V14.01,2013-01-23 15:15:00,
2013-01-23 06:20:00,8.1,1.5,29.64,NE,34,9.0,14.0,74,0.00,,---,0.00,VWS V14.01,2013-01-23 15:20:00,
2013-01-23 06:25:00,7.9,1.1,29.65,NE,47,4.0,16.0,73,0.00,,---,0.00,VWS V14.01,2013-01-23 15:25:00,
2013-01-23 06:30:00,7.7,0.9,29.65,NE,53,11.0,11.0,73,0.00,,---,0.00,VWS V14.01,2013-01-23 15:30:00,
2013-01-23 06:35:00,7.5,1.0,29.65,NE,35,3.0,7.0,74,0.00,,---,0.00,VWS V14.01,2013-01-23 15:35:00,
2013-01-23 06:40:00,7.2,0.4,29.65,NE,38,10.0,11.0,73,0.00,,---,0.00,VWS V14.01,2013-01-23 15:40:00,
2013-01-23 06:45:00,6.9,0.4,29.64,NE,42,11.0,11.0,74,0.00,,---,0.00,VWS V14.01,2013-01-23 15:45:00,
2013-01-23 06:50:00,6.8,0.3,29.64,NNE,28,6.0,7.0,74,0.00,,---,0.00,VWS V14.01,2013-01-23 15:50:00,
2013-01-23 06:55:00,6.7,0.2,29.64,NNE,28,7.0,10.0,74,0.00,,---,0.00,VWS V14.01,2013-01-23 15:55:00,
2013-01-23 07:00:00,6.5,0.0,29.64,NE,36,5.0,11.0,74,0.00,,---,0.00,VWS V14.01,2013-01-23 16:00:00,
2013-01-23 07:05:00,6.4,-0.1,29.64,North,5,6.0,6.0,74,0.00,,---,0.00,VWS V14.01,2013-01-23 16:05:00,
2013-01-23 07:10:00,6.4,0.2,29.64,NE,51,11.0,13.0,75,0.00,,---,0.00,VWS V14.01,2013-01-23 16:10:00,
2013-01-23 07:15:00,6.4,0.2,29.64,NNE,27,5.0,11.0,75,0.00,,---,0.00,VWS V14.01,2013-01-23 16:15:00,
2013-01-23 07:20:00,6.5,0.3,29.64,NE,38,9.0,11.0,75,0.00,,---,0.00,VWS V14.01,2013-01-23 16:20:00,
2013-01-23 07:25:00,6.7,0.5,29.64,NE,37,5.0,11.0,75,0.00,,---,0.00,VWS V14.01,2013-01-23 16:25:00,
2013-01-23 07:30:00,6.8,0.6,29.64,NE,39,14.0,14.0,75,0.00,,---,0.00,VWS V14.01,2013-01-23 16:30:00,
2013-01-23 07:35:00,7.1,0.9,29.63,NNE,32,6.0,12.0,75,0.00,,---,0.00,VWS V14.01,2013-01-23 16:35:00,
2013-01-23 07:40:00,7.3,1.0,29.63,NE,38,6.0,10.0,75,0.00,,---,0.00,VWS V14.01,2013-01-23 16:40:00,
2013-01-23 07:45:00,7.3,0.8,29.63,NE,54,2.0,11.0,74,0.00,,---,0.00,VWS V14.01,2013-01-23 16:45:00,
2013-01-23 07:50:00,7.3,0.8,29.63,NW,316,5.0,10.0,74,0.00,,---,0.00,VWS V14.01,2013-01-23 16:50:00,
2013-01-23 07:55:00,7.2,0.7,29.63,NE,46,5.0,11.0,74,0.00,,---,0.00,VWS V14.01,2013-01-23 16:55:00,
2013-01-23 08:00:00,7.0,0.5,29.63,NNE,17,6.0,8.0,74,0.00,,---,0.00,VWS V14.01,2013-01-23 17:00:00,
2013-01-23 08:05:00,6.8,0.3,29.64,NNE,21,6.0,10.0,74,0.00,,---,0.00,VWS V14.01,2013-01-23 17:05:00,
2013-01-23 08:10:00,6.8,0.3,29.64,NNE,19,4.0,10.0,74,0.00,,---,0.00,VWS V14.01,2013-01-23 17:10:00,
2013-01-23 08:15:00,6.6,0.4,29.63,NE,46,6.0,11.0,75,0.00,,---,0.00,VWS V14.01,2013-01-23 17:15:00,
2013-01-23 08:20:00,6.5,0.0,29.63,NE,50,6.0,7.0,74,0.00,,---,0.00,VWS V14.01,2013-01-23 17:20:00,
2013-01-23 08:25:00,6.5,0.0,29.63,ENE,61,4.0,10.0,74,0.00,,---,0.00,VWS V14.01,2013-01-23 17:25:00,
2013-01-23 08:30:00,6.5,0.0,29.64,ENE,68,2.0,7.0,74,0.00,,---,0.00,VWS V14.01,2013-01-23 17:30:00,
2013-01-23 08:35:00,6.7,0.5,29.63,ENE,59,5.0,10.0,75,0.00,,---,0.00,VWS V14.01,2013-01-23 17:35:00,
2013-01-23 08:40:00,6.8,0.6,29.64,NE,36,3.0,10.0,75,0.00,,---,0.00,VWS V14.01,2013-01-23 17:40:00,
2013-01-23 08:45:00,7.0,0.8,29.64,NE,55,8.0,8.0,75,0.00,,---,0.00,VWS V14.01,2013-01-23 17:45:00,
2013-01-23 08:50:00,7.3,0.8,29.64,NE,52,12.0,12.0,74,0.00,,---,0.00,VWS V14.01,2013-01-23 17:50:00,
2013-01-23 08:55:00,7.5,1.0,29.64,ENE,67,9.0,15.0,74,0.00,,---,0.00,VWS V14.01,2013-01-23 17:55:00,
2013-01-23 09:00:00,7.8,1.2,29.63,NE,45,12.0,13.0,74,0.00,,---,0.00,VWS V14.01,2013-01-23 18:00:00,
2013-01-23 09:05:00,8.0,1.5,29.63,NE,49,13.0,13.0,74,0.00,,---,0.00,VWS V14.01,2013-01-23 18:05:00,
2013-01-23 09:10:00,8.1,1.2,29.64,NE,51,5.0,10.0,73,0.00,,---,0.00,VWS V14.01,2013-01-23 18:10:00,
2013-01-23 09:15:00,8.2,1.4,29.64,ENE,59,2.0,7.0,73,0.00,,---,0.00,VWS V14.01,2013-01-23 18:15:00,
2013-01-23 09:20:00,8.1,1.0,29.64,NE,38,2.0,11.0,72,0.00,,---,0.00,VWS V14.01,2013-01-23 18:20:00,
2013-01-23 09:25:00,8.0,1.2,29.64,ENE,58,11.0,11.0,73,0.00,,---,0.00,VWS V14.01,2013-01-23 18:25:00,
2013-01-23 09:30:00,8.0,1.2,29.64,ENE,59,10.0,12.0,73,0.00,,---,0.00,VWS V14.01,2013-01-23 18:30:00,
2013-01-23 09:35:00,8.0,0.9,29.64,NE,45,6.0,13.0,72,0.00,,---,0.00,VWS V14.01,2013-01-23 18:35:00,
2013-01-23 09:40:00,7.9,0.8,29.64,NE,52,8.0,9.0,72,0.00,,---,0.00,VWS V14.01,2013-01-23 18:40:00,
2013-01-23 09:45:00,7.8,1.0,29.64,NE,40,10.0,11.0,73,0.00,,---,0.00,VWS V14.01,2013-01-23 18:45:00,
2013-01-23 09:50:00,7.7,0.6,29.64,NE,49,5.0,9.0,72,0.00,,---,0.00,VWS V14.01,2013-01-23 18:50:00,
2013-01-23 09:55:00,7.7,0.6,29.64,NE,49,12.0,12.0,72,0.00,,---,0.00,VWS V14.01,2013-01-23 18:55:00,
2013-01-23 10:00:00,7.7,0.6,29.64,NNE,14,9.0,11.0,72,0.00,,---,0.00,VWS V14.01,2013-01-23 19:00:00,
2013-01-23 10:05:00,7.8,0.7,29.64,ENE,67,10.0,10.0,72,0.00,,---,0.00,VWS V14.01,2013-01-23 19:05:00,
2013-01-23 10:10:00,7.9,0.8,29.64,NE,52,14.0,14.0,72,0.00,,---,0.00,VWS V14.01,2013-01-23 19:10:00,
2013-01-23 10:15:00,8.0,0.9,29.64,NE,47,1.0,11.0,72,0.00,,---,0.00,VWS V14.01,2013-01-23 19:15:00,
2013-01-23 10:20:00,8.0,0.9,29.64,NE,41,5.0,13.0,72,0.00,,---,0.00,VWS V14.01,2013-01-23 19:20:00,
2013-01-23 10:25:00,8.2,1.0,29.64,NE,56,6.0,11.0,72,0.00,,---,0.00,VWS V14.01,2013-01-23 19:25:00,
2013-01-23 10:30:00,8.3,0.9,29.63,NE,46,6.0,16.0,71,0.00,,---,0.00,VWS V14.01,2013-01-23 19:30:00,
2013-01-23 10:35:00,8.3,0.9,29.63,NNE,15,6.0,13.0,71,0.00,,---,0.00,VWS V14.01,2013-01-23 19:35:00,
2013-01-23 10:40:00,8.4,0.9,29.63,NE,46,11.0,15.0,71,0.00,,---,0.00,VWS V14.01,2013-01-23 19:40:00,
2013-01-23 10:45:00,8.5,1.0,29.63,NE,52,3.0,3.0,71,0.00,,---,0.00,VWS V14.01,2013-01-23 19:45:00,
2013-01-23 10:50:00,8.5,1.0,29.63,ENE,58,9.0,10.0,71,0.00,,---,0.00,VWS V14.01,2013-01-23 19:50:00,
2013-01-23 10:56:00,8.5,1.0,29.63,North,11,3.0,5.0,71,0.00,,---,0.00,VWS V14.01,2013-01-23 19:56:00,
2013-01-23 11:01:00,8.5,0.7,29.63,NE,46,12.0,12.0,70,0.00,,---,0.00,VWS V14.01,2013-01-23 20:01:00,
2013-01-23 11:06:00,8.6,0.8,29.63,NNE,23,6.0,6.0,70,0.00,,---,0.00,VWS V14.01,2013-01-23 20:06:00,
2013-01-23 11:11:00,8.6,0.8,29.62,ENE,63,10.0,11.0,70,0.00,,---,0.00,VWS V14.01,2013-01-23 20:11:00,
2013-01-23 11:15:00,8.6,0.8,29.62,NE,34,13.0,13.0,70,0.00,,---,0.00,VWS V14.01,2013-01-23 20:15:00,
2013-01-23 11:20:00,8.6,0.5,29.62,ENE,67,13.0,16.0,69,0.00,,---,0.00,VWS V14.01,2013-01-23 20:20:00,
2013-01-23 11:26:00,8.6,0.5,29.62,ENE,78,6.0,12.0,69,0.00,,---,0.00,VWS V14.01,2013-01-23 20:26:00,
2013-01-23 11:31:00,8.6,0.8,29.62,ENE,59,13.0,13.0,70,0.00,,---,0.00,VWS V14.01,2013-01-23 20:31:00,
2013-01-23 11:36:00,8.6,0.8,29.62,NE,55,4.0,4.0,70,0.00,,---,0.00,VWS V14.01,2013-01-23 20:36:00,
2013-01-23 11:41:00,8.6,0.5,29.62,NE,44,5.0,6.0,69,0.00,,---,0.00,VWS V14.01,2013-01-23 20:41:00,
2013-01-23 11:46:00,8.7,0.9,29.62,NE,36,6.0,6.0,70,0.00,,---,0.00,VWS V14.01,2013-01-23 20:46:00,
2013-01-23 11:51:00,8.7,0.6,29.62,NNE,22,6.0,9.0,69,0.00,,---,0.00,VWS V14.01,2013-01-23 20:51:00,
2013-01-23 11:56:00,8.6,0.5,29.62,NE,36,7.0,7.0,69,0.00,,---,0.00,VWS V14.01,2013-01-23 20:56:00,
2013-01-23 12:01:00,8.6,0.5,29.62,NE,38,12.0,12.0,69,0.00,,---,0.00,VWS V14.01,2013-01-23 21:01:00,
2013-01-23 12:06:00,8.6,0.5,29.61,ENE,60,7.0,11.0,69,0.00,,---,0.00,VWS V14.01,2013-01-23 21:06:00,
2013-01-23 12:11:00,8.7,0.6,29.62,NE,40,5.0,9.0,69,0.00,,---,0.00,VWS V14.01,2013-01-23 21:11:00,
2013-01-23 12:16:00,8.7,0.6,29.61,NE,40,14.0,14.0,69,0.00,,---,0.00,VWS V14.01,2013-01-23 21:16:00,
2013-01-23 12:21:00,8.8,0.7,29.61,NE,44,9.0,9.0,69,0.00,,---,0.00,VWS V14.01,2013-01-23 21:21:00,
2013-01-23 12:26:00,8.8,0.7,29.61,NE,49,3.0,4.0,69,0.00,,---,0.00,VWS V14.01,2013-01-23 21:26:00,
2013-01-23 12:31:00,8.9,0.8,29.61,NNE,30,8.0,9.0,69,0.00,,---,0.00,VWS V14.01,2013-01-23 21:31:00,
2013-01-23 12:36:00,8.9,0.8,29.61,NNE,31,11.0,11.0,69,0.00,,---,0.00,VWS V14.01,2013-01-23 21:36:00,
2013-01-23 12:41:00,8.9,0.5,29.61,NE,53,6.0,9.0,68,0.00,,---,0.00,VWS V14.01,2013-01-23 21:41:00,
2013-01-23 12:46:00,8.9,0.5,29.61,ENE,68,4.0,5.0,68,0.00,,---,0.00,VWS V14.01,2013-01-23 21:46:00,
2013-01-23 12:51:00,8.9,0.5,29.61,NE,53,7.0,10.0,68,0.00,,---,0.00,VWS V14.01,2013-01-23 21:51:00,
2013-01-23 12:56:00,8.9,0.5,29.61,NE,54,1.0,2.0,68,0.00,,---,0.00,VWS V14.01,2013-01-23 21:56:00,
2013-01-23 13:01:00,8.9,0.5,29.61,ENE,62,4.0,5.0,68,0.00,,---,0.00,VWS V14.01,2013-01-23 22:01:00,
2013-01-23 13:06:00,8.9,0.5,29.61,NE,51,9.0,11.0,68,0.00,,---,0.00,VWS V14.01,2013-01-23 22:06:00,
2013-01-23 13:11:00,8.9,0.5,29.61,NE,45,4.0,6.0,68,0.00,,---,0.00,VWS V14.01,2013-01-23 22:11:00,
2013-01-23 13:16:00,8.8,0.4,29.60,NNE,25,7.0,10.0,68,0.00,,---,0.00,VWS V14.01,2013-01-23 22:16:00,
2013-01-23 13:21:00,8.8,0.4,29.60,NE,47,12.0,12.0,68,0.00,,---,0.00,VWS V14.01,2013-01-23 22:21:00,
2013-01-23 13:26:00,8.7,0.3,29.61,NNE,19,10.0,14.0,68,0.00,,---,0.00,VWS V14.01,2013-01-23 22:26:00,
2013-01-23 13:31:00,8.7,0.3,29.61,NNE,28,6.0,10.0,68,0.00,,---,0.00,VWS V14.01,2013-01-23 22:31:00,
2013-01-23 13:36:00,8.7,0.3,29.61,NNE,26,7.0,12.0,68,0.00,,---,0.00,VWS V14.01,2013-01-23 22:36:00,
2013-01-23 13:41:00,8.7,0.3,29.61,NE,38,7.0,10.0,68,0.00,,---,0.00,VWS V14.01,2013-01-23 22:41:00,
2013-01-23 13:46:00,8.6,0.2,29.61,NE,49,3.0,10.0,68,0.00,,---,0.00,VWS V14.01,2013-01-23 22:46:00,
2013-01-23 13:51:00,8.6,0.2,29.60,ENE,72,7.0,13.0,68,0.00,,---,0.00,VWS V14.01,2013-01-23 22:51:00,
2013-01-23 13:56:00,8.6,0.5,29.60,North,10,2.0,5.0,69,0.00,,---,0.00,VWS V14.01,2013-01-23 22:56:00,
2013-01-23 14:01:00,8.6,0.5,29.61,NE,54,8.0,15.0,69,0.00,,---,0.00,VWS V14.01,2013-01-23 23:01:00,
2013-01-23 14:06:00,8.6,0.2,29.60,NE,35,4.0,10.0,68,0.00,,---,0.00,VWS V14.01,2013-01-23 23:06:00,
2013-01-23 14:11:00,8.6,0.2,29.61,NE,43,14.0,14.0,68,0.00,,---,0.00,VWS V14.01,2013-01-23 23:11:00,
2013-01-23 14:16:00,8.5,0.1,29.60,NNE,19,6.0,7.0,68,0.00,,---,0.00,VWS V14.01,2013-01-23 23:16:00,
2013-01-23 14:21:00,8.5,0.1,29.60,NNE,28,7.0,12.0,68,0.00,,---,0.00,VWS V14.01,2013-01-23 23:21:00,
2013-01-23 14:26:00,8.4,-0.3,29.60,ENE,64,10.0,10.0,67,0.00,,---,0.00,VWS V14.01,2013-01-23 23:26:00,
2013-01-23 14:31:00,8.4,0.0,29.60,East,82,5.0,12.0,68,0.00,,---,0.00,VWS V14.01,2013-01-23 23:31:00,
2013-01-23 14:36:00,8.3,-0.1,29.60,NNE,25,1.0,9.0,68,0.00,,---,0.00,VWS V14.01,2013-01-23 23:36:00,
2013-01-23 14:41:00,8.3,-0.1,29.60,North,5,3.0,3.0,68,0.00,,---,0.00,VWS V14.01,2013-01-23 23:41:00,
2013-01-23 14:46:00,8.2,-0.2,29.60,NE,48,6.0,10.0,68,0.00,,---,0.00,VWS V14.01,2013-01-23 23:46:00,
2013-01-23 14:51:00,8.1,-0.3,29.60,ENE,58,6.0,6.0,68,0.00,,---,0.00,VWS V14.01,2013-01-23 23:51:00,
2013-01-23 14:56:00,8.1,-0.3,29.60,ENE,59,4.0,10.0,68,0.00,,---,0.00,VWS V14.01,2013-01-23 23:56:00,
2013-01-23 15:01:00,8.0,-0.4,29.60,NE,49,5.0,5.0,68,0.00,,---,0.00,VWS V14.01,2013-01-24 00:01:00,
2013-01-23 15:06:00,8.0,-0.4,29.60,NE,49,5.0,11.0,68,0.00,,---,0.00,VWS V14.01,2013-01-24 00:06:00,
2013-01-23 15:11:00,7.9,-0.1,29.60,NNE,32,9.0,9.0,69,0.00,,---,0.00,VWS V14.01,2013-01-24 00:11:00,
2013-01-23 15:16:00,7.8,-0.2,29.60,NE,50,9.0,13.0,69,0.00,,---,0.00,VWS V14.01,2013-01-24 00:16:00,
2013-01-23 15:21:00,7.8,-0.6,29.60,ENE,62,5.0,8.0,68,0.00,,---,0.00,VWS V14.01,2013-01-24 00:21:00,
2013-01-23 15:26:00,7.8,-0.6,29.60,NNE,33,1.0,11.0,68,0.00,,---,0.00,VWS V14.01,2013-01-24 00:26:00,
2013-01-23 15:31:00,7.7,-0.6,29.60,ENE,63,4.0,12.0,68,0.00,,---,0.00,VWS V14.01,2013-01-24 00:31:00,
2013-01-23 15:36:00,7.7,-0.6,29.60,ENE,61,1.0,10.0,68,0.00,,---,0.00,VWS V14.01,2013-01-24 00:36:00,
2013-01-23 15:41:00,7.6,-0.7,29.60,ENE,58,6.0,7.0,68,0.00,,---,0.00,VWS V14.01,2013-01-24 00:41:00,
2013-01-23 15:46:00,7.6,-0.7,29.60,North,350,7.0,12.0,68,0.00,,---,0.00,VWS V14.01,2013-01-24 00:46:00,
2013-01-23 15:51:00,7.6,-0.7,29.60,ENE,72,6.0,9.0,68,0.00,,---,0.00,VWS V14.01,2013-01-24 00:51:00,
2013-01-23 15:56:00,7.5,-0.8,29.60,ENE,66,14.0,15.0,68,0.00,,---,0.00,VWS V14.01,2013-01-24 00:56:00,
2013-01-23 16:01:00,7.5,-0.8,29.60,ENE,57,9.0,13.0,68,0.00,,---,0.00,VWS V14.01,2013-01-24 01:01:00,
2013-01-23 16:06:00,7.4,-0.9,29.60,NE,48,3.0,11.0,68,0.00,,---,0.00,VWS V14.01,2013-01-24 01:06:00,
2013-01-23 16:11:00,7.3,-1.0,29.60,NE,55,6.0,10.0,68,0.00,,---,0.00,VWS V14.01,2013-01-24 01:11:00,
2013-01-23 16:16:00,7.3,-1.0,29.60,NE,55,7.0,10.0,68,0.00,,---,0.00,VWS V14.01,2013-01-24 01:16:00,
2013-01-23 16:21:00,7.2,-0.8,29.60,NE,48,12.0,13.0,69,0.00,,---,0.00,VWS V14.01,2013-01-24 01:21:00,
2013-01-23 16:26:00,7.1,-1.5,29.60,NE,56,7.0,10.0,67,0.00,,---,0.00,VWS V14.01,2013-01-24 01:26:00,
2013-01-23 16:31:00,7.1,-0.9,29.60,NNE,30,7.0,12.0,69,0.00,,---,0.00,VWS V14.01,2013-01-24 01:31:00,
2013-01-23 16:36:00,7.0,-1.3,29.60,ENE,58,8.0,11.0,68,0.00,,---,0.00,VWS V14.01,2013-01-24 01:36:00,
2013-01-23 16:41:00,6.9,-1.4,29.60,ENE,66,5.0,7.0,68,0.00,,---,0.00,VWS V14.01,2013-01-24 01:41:00,
2013-01-23 16:46:00,6.9,-1.4,29.60,ENE,60,7.0,10.0,68,0.00,,---,0.00,VWS V14.01,2013-01-24 01:46:00,
2013-01-23 16:51:00,6.8,-1.5,29.60,NE,56,2.0,10.0,68,0.00,,---,0.00,VWS V14.01,2013-01-24 01:51:00,
2013-01-23 16:56:00,6.7,-1.3,29.60,NE,51,3.0,9.0,69,0.00,,---,0.00,VWS V14.01,2013-01-24 01:56:00,
2013-01-23 17:01:00,6.7,-1.3,29.60,ENE,67,5.0,9.0,69,0.00,,---,0.00,VWS V14.01,2013-01-24 02:01:00,
2013-01-23 17:06:00,6.6,-1.4,29.60,NE,51,7.0,11.0,69,0.00,,---,0.00,VWS V14.01,2013-01-24 02:06:00,
2013-01-23 17:12:00,6.6,-1.4,29.61,NE,46,1.0,1.0,69,0.00,,---,0.00,VWS V14.01,2013-01-24 02:12:00,
2013-01-23 17:17:00,6.5,-1.8,29.61,NE,46,10.0,10.0,68,0.00,,---,0.00,VWS V14.01,2013-01-24 02:17:00,
2013-01-23 17:22:00,6.5,-1.8,29.61,ENE,67,2.0,3.0,68,0.00,,---,0.00,VWS V14.01,2013-01-24 02:22:00,
2013-01-23 17:27:00,6.4,-1.9,29.61,NNE,27,5.0,11.0,68,0.00,,---,0.00,VWS V14.01,2013-01-24 02:27:00,
2013-01-23 17:32:00,6.4,-1.6,29.61,NE,55,10.0,10.0,69,0.00,,---,0.00,VWS V14.01,2013-01-24 02:32:00,
2013-01-23 17:37:00,6.4,-1.6,29.61,ENE,68,4.0,4.0,69,0.00,,---,0.00,VWS V14.01,2013-01-24 02:37:00,
2013-01-23 17:42:00,6.3,-1.7,29.61,ENE,71,14.0,14.0,69,0.00,,---,0.00,VWS V14.01,2013-01-24 02:42:00,
2013-01-23 17:47:00,6.3,-2.0,29.61,NE,46,4.0,4.0,68,0.00,,---,0.00,VWS V14.01,2013-01-24 02:47:00,
2013-01-23 17:52:00,6.2,-2.1,29.61,NE,37,11.0,15.0,68,0.00,,---,0.00,VWS V14.01,2013-01-24 02:52:00,
2013-01-23 17:57:00,6.2,-2.1,29.61,ENE,61,4.0,7.0,68,0.00,,---,0.00,VWS V14.01,2013-01-24 02:57:00,
2013-01-23 18:02:00,6.2,-2.1,29.61,NE,55,7.0,7.0,68,0.00,,---,0.00,VWS V14.01,2013-01-24 03:02:00,
2013-01-23 18:07:00,6.2,-2.1,29.61,ENE,59,10.0,13.0,68,0.00,,---,0.00,VWS V14.01,2013-01-24 03:07:00,
2013-01-23 18:12:00,6.1,-1.9,29.61,ENE,65,2.0,3.0,69,0.00,,---,0.00,VWS V14.01,2013-01-24 03:12:00,
2013-01-23 18:17:00,6.1,-2.2,29.61,ENE,74,6.0,9.0,68,0.00,,---,0.00,VWS V14.01,2013-01-24 03:17:00,
2013-01-23 18:22:00,6.1,-2.5,29.61,ENE,78,5.0,9.0,67,0.00,,---,0.00,VWS V14.01,2013-01-24 03:22:00,
2013-01-23 18:27:00,6.1,-2.5,29.61,ENE,78,7.0,16.0,67,0.00,,---,0.00,VWS V14.01,2013-01-24 03:27:00,
2013-01-23 18:32:00,6.0,-2.3,29.61,NE,42,6.0,6.0,68,0.00,,---,0.00,VWS V14.01,2013-01-24 03:32:00,
2013-01-23 18:37:00,6.0,-2.3,29.61,ENE,74,11.0,12.0,68,0.00,,---,0.00,VWS V14.01,2013-01-24 03:37:00,
2013-01-23 18:42:00,6.0,-2.3,29.61,NE,38,3.0,5.0,68,0.00,,---,0.00,VWS V14.01,2013-01-24 03:42:00,
2013-01-23 18:47:00,6.0,-2.6,29.61,ENE,63,3.0,3.0,67,0.00,,---,0.00,VWS V14.01,2013-01-24 03:47:00,
2013-01-23 18:52:00,6.0,-2.6,29.61,ENE,61,5.0,5.0,67,0.00,,---,0.00,VWS V14.01,2013-01-24 03:52:00,
2013-01-23 18:57:00,6.0,-2.9,29.61,ENE,77,11.0,16.0,66,0.00,,---,0.00,VWS V14.01,2013-01-24 03:57:00,
2013-01-23 19:02:00,5.9,-3.0,29.61,ENE,64,10.0,12.0,66,0.00,,---,0.00,VWS V14.01,2013-01-24 04:02:00,
2013-01-23 19:07:00,5.9,-3.0,29.61,NE,51,7.0,7.0,66,0.00,,---,0.00,VWS V14.01,2013-01-24 04:07:00,
2013-01-23 19:12:00,5.8,-3.1,29.61,ENE,68,3.0,7.0,66,0.00,,---,0.00,VWS V14.01,2013-01-24 04:12:00,
2013-01-23 19:17:00,5.8,-3.1,29.61,ENE,57,7.0,15.0,66,0.00,,---,0.00,VWS V14.01,2013-01-24 04:17:00,
2013-01-23 19:22:00,5.7,-3.2,29.61,ENE,65,1.0,5.0,66,0.00,,---,0.00,VWS V14.01,2013-01-24 04:22:00,
2013-01-23 19:27:00,5.6,-3.3,29.61,East,96,13.0,15.0,66,0.00,,---,0.00,VWS V14.01,2013-01-24 04:27:00,
2013-01-23 19:32:00,5.6,-3.6,29.61,ENE,78,8.0,11.0,65,0.00,,---,0.00,VWS V14.01,2013-01-24 04:32:00,
2013-01-23 19:37:00,5.6,-3.3,29.61,ENE,61,10.0,12.0,66,0.00,,---,0.00,VWS V14.01,2013-01-24 04:37:00,
2013-01-23 19:42:00,5.5,-3.4,29.62,NE,35,10.0,10.0,66,0.00,,---,0.00,VWS V14.01,2013-01-24 04:42:00,
2013-01-23 19:47:00,5.4,-3.8,29.61,ENE,72,13.0,14.0,65,0.00,,---,0.00,VWS V14.01,2013-01-24 04:47:00,
2013-01-23 19:52:00,5.4,-3.5,29.62,NE,49,8.0,11.0,66,0.00,,---,0.00,VWS V14.01,2013-01-24 04:52:00,
2013-01-23 19:57:00,5.3,-3.6,29.62,NE,55,5.0,9.0,66,0.00,,---,0.00,VWS V14.01,2013-01-24 04:57:00,
2013-01-23 20:01:00,5.2,-3.7,29.62,ENE,72,3.0,10.0,66,0.00,,---,0.00,VWS V14.01,2013-01-24 05:01:00,
2013-01-23 20:03:00,5.2,-3.7,29.62,NE,48,6.0,9.0,66,0.00,,---,0.00,VWS V14.01,2013-01-24 05:03:00,
2013-01-23 20:08:00,5.1,-3.8,29.62,NNE,26,11.0,11.0,66,0.00,,---,0.00,VWS V14.01,2013-01-24 05:08:00,
2013-01-23 20:13:00,5.0,-3.9,29.62,ENE,59,7.0,7.0,66,0.00,,---,0.00,VWS V14.01,2013-01-24 05:13:00,
2013-01-23 20:18:00,4.9,-4.0,29.62,ENE,69,12.0,15.0,66,0.00,,---,0.00,VWS V14.01,2013-01-24 05:18:00,
2013-01-23 20:23:00,4.9,-4.3,29.62,NE,46,12.0,13.0,65,0.00,,---,0.00,VWS V14.01,2013-01-24 05:23:00,
2013-01-23 20:28:00,4.8,-4.1,29.62,ESE,106,5.0,14.0,66,0.00,,---,0.00,VWS V14.01,2013-01-24 05:28:00,
2013-01-23 20:33:00,4.7,-4.2,29.62,ENE,64,10.0,13.0,66,0.00,,---,0.00,VWS V14.01,2013-01-24 05:33:00,
2013-01-23 20:38:00,4.6,-4.2,29.62,NE,56,9.0,14.0,66,0.00,,---,0.00,VWS V14.01,2013-01-24 05:38:00,
2013-01-23 20:43:00,4.6,-4.2,29.62,ENE,70,6.0,13.0,66,0.00,,---,0.00,VWS V14.01,2013-01-24 05:43:00,
2013-01-23 20:48:00,4.6,-4.2,29.62,ENE,57,2.0,7.0,66,0.00,,---,0.00,VWS V14.01,2013-01-24 05:48:00,
2013-01-23 20:53:00,4.5,-4.3,29.63,NNE,14,11.0,11.0,66,0.00,,---,0.00,VWS V14.01,2013-01-24 05:53:00,
2013-01-23 20:58:00,4.5,-4.3,29.62,NE,53,14.0,14.0,66,0.00,,---,0.00,VWS V14.01,2013-01-24 05:58:00,
2013-01-23 21:03:00,4.5,-4.3,29.63,ENE,61,5.0,7.0,66,0.00,,---,0.00,VWS V14.01,2013-01-24 06:03:00,
2013-01-23 21:08:00,4.4,-4.8,29.63,NE,46,7.0,10.0,65,0.00,,---,0.00,VWS V14.01,2013-01-24 06:08:00,
2013-01-23 21:13:00,4.4,-4.4,29.63,NE,53,5.0,13.0,66,0.00,,---,0.00,VWS V14.01,2013-01-24 06:13:00,
2013-01-23 21:18:00,4.4,-4.4,29.63,ENE,58,11.0,16.0,66,0.00,,---,0.00,VWS V14.01,2013-01-24 06:18:00,
2013-01-23 21:23:00,4.3,-4.5,29.63,ENE,69,4.0,14.0,66,0.00,,---,0.00,VWS V14.01,2013-01-24 06:23:00,
2013-01-23 21:28:00,4.3,-4.5,29.63,NE,46,14.0,14.0,66,0.00,,---,0.00,VWS V14.01,2013-01-24 06:28:00,
2013-01-23 21:33:00,4.2,-4.6,29.63,East,88,10.0,10.0,66,0.00,,---,0.00,VWS V14.01,2013-01-24 06:33:00,
2013-01-23 21:38:00,4.2,-4.6,29.63,ENE,76,1.0,14.0,66,0.00,,---,0.00,VWS V14.01,2013-01-24 06:38:00,
2013-01-23 21:43:00,4.2,-4.9,29.63,NE,37,7.0,16.0,65,0.00,,---,0.00,VWS V14.01,2013-01-24 06:43:00,
2013-01-23 21:48:00,4.1,-5.0,29.63,NNE,19,6.0,12.0,65,0.00,,---,0.00,VWS V14.01,2013-01-24 06:48:00,
2013-01-23 21:53:00,4.1,-5.0,29.63,ENE,65,13.0,13.0,65,0.00,,---,0.00,VWS V14.01,2013-01-24 06:53:00,
2013-01-23 21:58:00,4.1,-5.0,29.64,ENE,67,6.0,16.0,65,0.00,,---,0.00,VWS V14.01,2013-01-24 06:58:00,
2013-01-23 22:03:00,4.1,-5.0,29.64,ENE,65,14.0,16.0,65,0.00,,---,0.00,VWS V14.01,2013-01-24 07:03:00,
2013-01-23 22:08:00,4.1,-4.7,29.64,NNE,33,10.0,17.0,66,0.00,,---,0.00,VWS V14.01,2013-01-24 07:08:00,
2013-01-23 22:13:00,4.1,-5.0,29.64,NE,49,12.0,16.0,65,0.00,,---,0.00,VWS V14.01,2013-01-24 07:13:00,
2013-01-23 22:18:00,4.1,-5.0,29.64,ENE,57,5.0,9.0,65,0.00,,---,0.00,VWS V14.01,2013-01-24 07:18:00,
2013-01-23 22:23:00,4.0,-4.8,29.64,NE,55,4.0,12.0,66,0.00,,---,0.00,VWS V14.01,2013-01-24 07:23:00,
2013-01-23 22:28:00,4.0,-5.1,29.64,NE,47,12.0,14.0,65,0.00,,---,0.00,VWS V14.01,2013-01-24 07:28:00,
2013-01-23 22:33:00,3.9,-5.2,29.64,ENE,67,5.0,16.0,65,0.00,,---,0.00,VWS V14.01,2013-01-24 07:33:00,
2013-01-23 22:38:00,3.9,-5.2,29.64,ENE,67,11.0,19.0,65,0.00,,---,0.00,VWS V14.01,2013-01-24 07:38:00,
2013-01-23 22:43:00,3.8,-5.0,29.64,NE,40,6.0,6.0,66,0.00,,---,0.00,VWS V14.01,2013-01-24 07:43:00,
2013-01-23 22:48:00,3.8,-5.0,29.64,ENE,67,9.0,10.0,66,0.00,,---,0.00,VWS V14.01,2013-01-24 07:48:00,
2013-01-23 22:53:00,3.7,-5.1,29.65,ENE,70,12.0,17.0,66,0.00,,---,0.00,VWS V14.01,2013-01-24 07:53:00,
2013-01-23 22:58:00,3.7,-5.1,29.64,NE,55,11.0,14.0,66,0.00,,---,0.00,VWS V14.01,2013-01-24 07:58:00,
2013-01-23 23:03:00,3.7,-5.1,29.64,NE,55,2.0,11.0,66,0.00,,---,0.00,VWS V14.01,2013-01-24 08:03:00,
2013-01-23 23:08:00,3.6,-5.2,29.64,ENE,74,10.0,13.0,66,0.00,,---,0.00,VWS V14.01,2013-01-24 08:08:00,
2013-01-23 23:13:00,3.6,-4.9,29.65,NNE,30,12.0,15.0,67,0.00,,---,0.00,VWS V14.01,2013-01-24 08:13:00,
2013-01-23 23:18:00,3.6,-5.2,29.65,NE,53,6.0,13.0,66,0.00,,---,0.00,VWS V14.01,2013-01-24 08:18:00,
2013-01-23 23:23:00,3.5,-5.3,29.65,NE,53,11.0,15.0,66,0.00,,---,0.00,VWS V14.01,2013-01-24 08:23:00,
2013-01-23 23:28:00,3.5,-5.3,29.65,ENE,71,9.0,15.0,66,0.00,,---,0.00,VWS V14.01,2013-01-24 08:28:00,
2013-01-23 23:33:00,3.4,-5.4,29.65,ENE,78,16.0,17.0,66,0.00,,---,0.00,VWS V14.01,2013-01-24 08:33:00,
2013-01-23 23:38:00,3.3,-5.2,29.65,East,80,12.0,24.0,67,0.00,,---,0.00,VWS V14.01,2013-01-24 08:38:00,
2013-01-23 23:44:00,3.3,-5.2,29.65,ENE,57,13.0,13.0,67,0.00,,---,0.00,VWS V14.01,2013-01-24 08:44:00,
2013-01-23 23:49:00,3.2,-5.0,29.66,ESE,109,12.0,13.0,68,0.00,,---,0.00,VWS V14.01,2013-01-24 08:49:00,
2013-01-23 23:54:00,3.1,-5.4,29.66,ENE,63,6.0,10.0,67,0.00,,---,0.00,VWS V14.01,2013-01-24 08:54:00,
2013-01-23 23:59:00,3.0,-5.2,29.66,ENE,62,9.0,9.0,68,0.00,,---,0.00,VWS V14.01,2013-01-24 08:59:00,